sensor_id;sensor_type;location;lat;lon;timestamp;temperature;humidity
25360;DHT22;13311;51.386;0.016;2023-12-29T00:04:59;13.30;96.00
25360;DHT22;13311;51.386;0.016;2023-12-29T00:10:00;13.40;96.50
25360;DHT22;13311;51.386;0.016;2023-12-29T00:15:00;13.40;96.30
25360;DHT22;13311;51.386;0.016;2023-12-29T00:20:01;13.30;96.50
25360;DHT22;13311;51.386;0.016;2023-12-29T00:25:02;13.30;96.30
25360;DHT22;13311;51.386;0.016;2023-12-29T00:30:03;13.30;96.20
25360;DHT22;13311;51.386;0.016;2023-12-29T00:35:04;13.20;95.80
25360;DHT22;13311;51.386;0.016;2023-12-29T00:40:06;13.30;95.80
25360;DHT22;13311;51.386;0.016;2023-12-29T00:45:07;13.30;96.00
25360;DHT22;13311;51.386;0.016;2023-12-29T00:50:09;13.10;95.70
25360;DHT22;13311;51.386;0.016;2023-12-29T00:55:09;13.10;95.90
25360;DHT22;13311;51.386;0.016;2023-12-29T01:00:11;13.10;95.70
25360;DHT22;13311;51.386;0.016;2023-12-29T01:05:16;13.30;96.90
25360;DHT22;13311;51.386;0.016;2023-12-29T01:10:17;13.20;95.10
25360;DHT22;13311;51.386;0.016;2023-12-29T01:15:18;13.10;95.90
25360;DHT22;13311;51.386;0.016;2023-12-29T01:20:19;13.00;94.70
25360;DHT22;13311;51.386;0.016;2023-12-29T01:25:20;13.10;96.30
25360;DHT22;13311;51.386;0.016;2023-12-29T01:30:21;13.10;95.00
25360;DHT22;13311;51.386;0.016;2023-12-29T01:35:22;13.00;95.00
25360;DHT22;13311;51.386;0.016;2023-12-29T01:40:23;13.00;95.20
25360;DHT22;13311;51.386;0.016;2023-12-29T01:45:24;12.90;95.50
25360;DHT22;13311;51.386;0.016;2023-12-29T01:50:29;12.90;95.70
25360;DHT22;13311;51.386;0.016;2023-12-29T01:55:30;12.90;95.70
25360;DHT22;13311;51.386;0.016;2023-12-29T02:00:33;12.90;95.80
25360;DHT22;13311;51.386;0.016;2023-12-29T02:05:35;12.90;96.40
25360;DHT22;13311;51.386;0.016;2023-12-29T02:10:37;12.90;96.00
25360;DHT22;13311;51.386;0.016;2023-12-29T02:15:38;13.00;96.20
25360;DHT22;13311;51.386;0.016;2023-12-29T02:20:39;13.00;95.60
25360;DHT22;13311;51.386;0.016;2023-12-29T02:25:39;13.00;95.30
25360;DHT22;13311;51.386;0.016;2023-12-29T02:35:45;12.90;95.90
25360;DHT22;13311;51.386;0.016;2023-12-29T02:40:46;12.90;95.40
25360;DHT22;13311;51.386;0.016;2023-12-29T02:45:47;12.80;95.80
25360;DHT22;13311;51.386;0.016;2023-12-29T02:50:48;12.90;96.40
25360;DHT22;13311;51.386;0.016;2023-12-29T02:55:48;12.80;96.40
25360;DHT22;13311;51.386;0.016;2023-12-29T03:00:51;12.90;96.00
25360;DHT22;13311;51.386;0.016;2023-12-29T03:05:52;12.80;96.10
25360;DHT22;13311;51.386;0.016;2023-12-29T03:10:52;12.80;96.40
25360;DHT22;13311;51.386;0.016;2023-12-29T03:15:53;12.90;96.60
25360;DHT22;13311;51.386;0.016;2023-12-29T03:20:55;12.80;96.80
25360;DHT22;13311;51.386;0.016;2023-12-29T03:25:56;12.70;96.70
25360;DHT22;13311;51.386;0.016;2023-12-29T03:30:57;12.80;96.80
25360;DHT22;13311;51.386;0.016;2023-12-29T03:35:58;12.80;96.90
25360;DHT22;13311;51.386;0.016;2023-12-29T03:40:59;12.80;96.70
25360;DHT22;13311;51.386;0.016;2023-12-29T03:46:00;12.80;96.90
25360;DHT22;13311;51.386;0.016;2023-12-29T03:51:00;12.90;97.10
25360;DHT22;13311;51.386;0.016;2023-12-29T03:56:08;13.00;96.90
25360;DHT22;13311;51.386;0.016;2023-12-29T04:01:13;13.10;97.00
25360;DHT22;13311;51.386;0.016;2023-12-29T04:06:16;13.20;96.90
25360;DHT22;13311;51.386;0.016;2023-12-29T04:11:16;13.30;96.60
25360;DHT22;13311;51.386;0.016;2023-12-29T04:16:17;13.30;96.70
25360;DHT22;13311;51.386;0.016;2023-12-29T04:21:18;13.30;96.60
25360;DHT22;13311;51.386;0.016;2023-12-29T04:26:20;13.40;96.50
25360;DHT22;13311;51.386;0.016;2023-12-29T04:31:20;13.40;96.60
25360;DHT22;13311;51.386;0.016;2023-12-29T04:36:21;13.50;96.50
25360;DHT22;13311;51.386;0.016;2023-12-29T04:41:22;13.40;96.60
25360;DHT22;13311;51.386;0.016;2023-12-29T04:46:22;13.50;96.70
25360;DHT22;13311;51.386;0.016;2023-12-29T04:51:23;13.50;96.70
25360;DHT22;13311;51.386;0.016;2023-12-29T04:56:24;13.50;96.50
25360;DHT22;13311;51.386;0.016;2023-12-29T05:01:24;13.60;96.50
25360;DHT22;13311;51.386;0.016;2023-12-29T05:06:25;13.50;96.40
25360;DHT22;13311;51.386;0.016;2023-12-29T05:11:26;13.60;96.30
25360;DHT22;13311;51.386;0.016;2023-12-29T05:16:26;13.60;96.40
25360;DHT22;13311;51.386;0.016;2023-12-29T05:21:27;13.60;96.40
25360;DHT22;13311;51.386;0.016;2023-12-29T05:26:28;13.70;96.60
25360;DHT22;13311;51.386;0.016;2023-12-29T05:31:29;13.60;96.80
25360;DHT22;13311;51.386;0.016;2023-12-29T05:36:29;13.60;96.90
25360;DHT22;13311;51.386;0.016;2023-12-29T05:41:30;13.80;96.70
25360;DHT22;13311;51.386;0.016;2023-12-29T05:46:32;13.80;96.60
25360;DHT22;13311;51.386;0.016;2023-12-29T05:51:33;13.90;96.60
25360;DHT22;13311;51.386;0.016;2023-12-29T05:56:34;14.00;96.50
25360;DHT22;13311;51.386;0.016;2023-12-29T06:01:34;13.90;96.50
25360;DHT22;13311;51.386;0.016;2023-12-29T06:06:35;14.00;96.20
25360;DHT22;13311;51.386;0.016;2023-12-29T06:11:36;14.00;96.70
25360;DHT22;13311;51.386;0.016;2023-12-29T06:16:37;14.00;96.10
25360;DHT22;13311;51.386;0.016;2023-12-29T06:21:41;13.90;96.50
25360;DHT22;13311;51.386;0.016;2023-12-29T06:26:45;13.80;96.10
25360;DHT22;13311;51.386;0.016;2023-12-29T06:31:48;13.80;96.30
25360;DHT22;13311;51.386;0.016;2023-12-29T06:36:48;13.80;96.20
25360;DHT22;13311;51.386;0.016;2023-12-29T06:41:49;13.70;95.90
25360;DHT22;13311;51.386;0.016;2023-12-29T06:46:50;13.70;95.90
25360;DHT22;13311;51.386;0.016;2023-12-29T06:51:51;13.60;96.10
25360;DHT22;13311;51.386;0.016;2023-12-29T06:56:52;13.60;96.20
25360;DHT22;13311;51.386;0.016;2023-12-29T07:01:53;13.50;96.20
25360;DHT22;13311;51.386;0.016;2023-12-29T07:06:53;13.50;96.30
25360;DHT22;13311;51.386;0.016;2023-12-29T07:11:55;13.50;96.30
25360;DHT22;13311;51.386;0.016;2023-12-29T07:16:56;13.50;96.70
25360;DHT22;13311;51.386;0.016;2023-12-29T07:21:58;13.50;96.30
25360;DHT22;13311;51.386;0.016;2023-12-29T07:26:59;13.50;96.00
25360;DHT22;13311;51.386;0.016;2023-12-29T07:32:00;13.60;96.70
25360;DHT22;13311;51.386;0.016;2023-12-29T07:37:00;13.50;96.10
25360;DHT22;13311;51.386;0.016;2023-12-29T07:42:01;13.50;96.20
25360;DHT22;13311;51.386;0.016;2023-12-29T07:47:03;13.40;96.00
25360;DHT22;13311;51.386;0.016;2023-12-29T07:52:04;13.50;96.10
25360;DHT22;13311;51.386;0.016;2023-12-29T07:57:05;13.50;96.00
25360;DHT22;13311;51.386;0.016;2023-12-29T08:02:05;13.50;95.90
25360;DHT22;13311;51.386;0.016;2023-12-29T08:07:06;13.40;95.90
25360;DHT22;13311;51.386;0.016;2023-12-29T08:12:07;13.40;95.80
25360;DHT22;13311;51.386;0.016;2023-12-29T08:17:08;13.40;95.60
25360;DHT22;13311;51.386;0.016;2023-12-29T08:22:13;13.30;96.20
25360;DHT22;13311;51.386;0.016;2023-12-29T08:27:14;13.30;95.70
25360;DHT22;13311;51.386;0.016;2023-12-29T08:32:15;13.10;95.30
25360;DHT22;13311;51.386;0.016;2023-12-29T08:37:16;12.90;95.60
25360;DHT22;13311;51.386;0.016;2023-12-29T08:42:21;12.70;96.00
25360;DHT22;13311;51.386;0.016;2023-12-29T08:47:22;12.50;96.40
25360;DHT22;13311;51.386;0.016;2023-12-29T08:52:23;12.50;96.60
25360;DHT22;13311;51.386;0.016;2023-12-29T08:57:24;12.40;96.90
25360;DHT22;13311;51.386;0.016;2023-12-29T09:02:28;12.30;97.10
25360;DHT22;13311;51.386;0.016;2023-12-29T09:07:28;12.20;97.30
25360;DHT22;13311;51.386;0.016;2023-12-29T09:12:30;12.10;97.50
25360;DHT22;13311;51.386;0.016;2023-12-29T09:17:31;12.10;97.60
25360;DHT22;13311;51.386;0.016;2023-12-29T09:22:31;12.10;97.80
25360;DHT22;13311;51.386;0.016;2023-12-29T09:27:32;12.20;98.00
25360;DHT22;13311;51.386;0.016;2023-12-29T09:32:33;12.20;98.00
25360;DHT22;13311;51.386;0.016;2023-12-29T09:37:34;12.30;98.10
25360;DHT22;13311;51.386;0.016;2023-12-29T09:42:35;12.30;98.10
25360;DHT22;13311;51.386;0.016;2023-12-29T09:47:41;12.40;98.10
25360;DHT22;13311;51.386;0.016;2023-12-29T09:52:43;12.40;98.30
25360;DHT22;13311;51.386;0.016;2023-12-29T09:57:44;12.60;98.10
25360;DHT22;13311;51.386;0.016;2023-12-29T10:02:51;12.80;97.90
25360;DHT22;13311;51.386;0.016;2023-12-29T10:07:56;12.90;97.80
25360;DHT22;13311;51.386;0.016;2023-12-29T10:13:01;13.00;97.90
25360;DHT22;13311;51.386;0.016;2023-12-29T10:18:26;13.10;98.10
25360;DHT22;13311;51.386;0.016;2023-12-29T10:23:38;13.30;98.00
25360;DHT22;13311;51.386;0.016;2023-12-29T10:28:41;13.60;97.70
25360;DHT22;13311;51.386;0.016;2023-12-29T10:33:41;13.80;97.20
25360;DHT22;13311;51.386;0.016;2023-12-29T10:38:42;13.70;97.20
25360;DHT22;13311;51.386;0.016;2023-12-29T10:43:44;13.60;97.30
25360;DHT22;13311;51.386;0.016;2023-12-29T10:48:52;13.80;97.40
25360;DHT22;13311;51.386;0.016;2023-12-29T10:53:56;13.90;97.10
25360;DHT22;13311;51.386;0.016;2023-12-29T10:59:04;13.80;97.10
25360;DHT22;13311;51.386;0.016;2023-12-29T11:04:06;13.80;97.40
25360;DHT22;13311;51.386;0.016;2023-12-29T11:09:07;13.80;97.50
25360;DHT22;13311;51.386;0.016;2023-12-29T11:14:10;13.70;97.60
25360;DHT22;13311;51.386;0.016;2023-12-29T11:19:12;13.80;97.70
25360;DHT22;13311;51.386;0.016;2023-12-29T11:24:15;13.90;97.40
25360;DHT22;13311;51.386;0.016;2023-12-29T11:29:16;13.90;97.30
25360;DHT22;13311;51.386;0.016;2023-12-29T11:34:28;13.90;97.40
25360;DHT22;13311;51.386;0.016;2023-12-29T11:39:43;14.10;96.80
25360;DHT22;13311;51.386;0.016;2023-12-29T11:44:51;14.30;97.00
25360;DHT22;13311;51.386;0.016;2023-12-29T11:49:59;14.40;96.50
25360;DHT22;13311;51.386;0.016;2023-12-29T11:55:11;14.30;96.40
25360;DHT22;13311;51.386;0.016;2023-12-29T12:00:13;14.40;96.20
25360;DHT22;13311;51.386;0.016;2023-12-29T12:05:46;14.50;96.00
25360;DHT22;13311;51.386;0.016;2023-12-29T12:10:48;14.60;96.00
25360;DHT22;13311;51.386;0.016;2023-12-29T12:15:49;14.60;95.70
25360;DHT22;13311;51.386;0.016;2023-12-29T12:20:50;14.40;96.00
25360;DHT22;13311;51.386;0.016;2023-12-29T12:25:57;14.50;96.00
25360;DHT22;13311;51.386;0.016;2023-12-29T12:31:06;14.60;96.10
25360;DHT22;13311;51.386;0.016;2023-12-29T12:36:07;14.70;96.10
25360;DHT22;13311;51.386;0.016;2023-12-29T12:41:10;14.80;96.20
25360;DHT22;13311;51.386;0.016;2023-12-29T12:46:13;14.90;95.60
25360;DHT22;13311;51.386;0.016;2023-12-29T12:51:14;14.90;95.50
25360;DHT22;13311;51.386;0.016;2023-12-29T12:56:15;15.00;94.80
25360;DHT22;13311;51.386;0.016;2023-12-29T13:01:17;15.10;95.20
25360;DHT22;13311;51.386;0.016;2023-12-29T13:06:18;15.00;94.10
25360;DHT22;13311;51.386;0.016;2023-12-29T13:11:20;14.90;95.10
25360;DHT22;13311;51.386;0.016;2023-12-29T13:16:29;14.90;95.60
25360;DHT22;13311;51.386;0.016;2023-12-29T13:21:31;15.00;95.40
25360;DHT22;13311;51.386;0.016;2023-12-29T13:26:32;15.00;95.20
25360;DHT22;13311;51.386;0.016;2023-12-29T13:31:36;15.00;94.50
25360;DHT22;13311;51.386;0.016;2023-12-29T13:37:05;15.10;94.20
25360;DHT22;13311;51.386;0.016;2023-12-29T13:42:16;15.00;94.20
25360;DHT22;13311;51.386;0.016;2023-12-29T13:47:18;15.00;94.20
25360;DHT22;13311;51.386;0.016;2023-12-29T13:52:21;15.00;93.90
25360;DHT22;13311;51.386;0.016;2023-12-29T13:57:34;14.90;94.20
25360;DHT22;13311;51.386;0.016;2023-12-29T14:02:36;14.90;92.90
25360;DHT22;13311;51.386;0.016;2023-12-29T14:07:36;14.80;93.90
25360;DHT22;13311;51.386;0.016;2023-12-29T14:12:37;14.70;94.10
25360;DHT22;13311;51.386;0.016;2023-12-29T14:17:39;14.70;94.30
25360;DHT22;13311;51.386;0.016;2023-12-29T14:22:39;14.80;95.20
25360;DHT22;13311;51.386;0.016;2023-12-29T14:27:40;14.70;92.80
25360;DHT22;13311;51.386;0.016;2023-12-29T14:32:43;14.50;91.90
25360;DHT22;13311;51.386;0.016;2023-12-29T14:37:43;14.50;93.00
25360;DHT22;13311;51.386;0.016;2023-12-29T14:42:45;14.60;92.60
25360;DHT22;13311;51.386;0.016;2023-12-29T14:47:47;14.70;94.60
25360;DHT22;13311;51.386;0.016;2023-12-29T14:52:49;14.60;94.30
25360;DHT22;13311;51.386;0.016;2023-12-29T14:57:50;14.50;93.90
25360;DHT22;13311;51.386;0.016;2023-12-29T15:02:50;14.50;93.80
25360;DHT22;13311;51.386;0.016;2023-12-29T15:07:51;14.40;93.10
25360;DHT22;13311;51.386;0.016;2023-12-29T15:12:52;14.60;93.70
25360;DHT22;13311;51.386;0.016;2023-12-29T15:17:52;14.50;93.40
25360;DHT22;13311;51.386;0.016;2023-12-29T15:22:53;14.50;93.10
25360;DHT22;13311;51.386;0.016;2023-12-29T15:27:55;14.40;92.50
25360;DHT22;13311;51.386;0.016;2023-12-29T15:32:57;14.40;94.00
25360;DHT22;13311;51.386;0.016;2023-12-29T15:37:58;14.50;93.60
25360;DHT22;13311;51.386;0.016;2023-12-29T15:43:02;14.40;93.20
25360;DHT22;13311;51.386;0.016;2023-12-29T15:48:08;14.40;94.20
25360;DHT22;13311;51.386;0.016;2023-12-29T15:53:09;14.40;94.40
25360;DHT22;13311;51.386;0.016;2023-12-29T15:58:10;14.30;94.50
25360;DHT22;13311;51.386;0.016;2023-12-29T16:03:10;14.30;94.60
25360;DHT22;13311;51.386;0.016;2023-12-29T16:08:11;14.40;94.90
25360;DHT22;13311;51.386;0.016;2023-12-29T16:13:12;14.30;92.90
25360;DHT22;13311;51.386;0.016;2023-12-29T16:18:14;14.20;92.20
25360;DHT22;13311;51.386;0.016;2023-12-29T16:23:14;14.20;93.40
25360;DHT22;13311;51.386;0.016;2023-12-29T16:28:15;14.30;93.90
25360;DHT22;13311;51.386;0.016;2023-12-29T16:33:16;14.20;93.60
25360;DHT22;13311;51.386;0.016;2023-12-29T16:38:17;14.00;92.00
25360;DHT22;13311;51.386;0.016;2023-12-29T16:43:18;14.00;92.70
25360;DHT22;13311;51.386;0.016;2023-12-29T16:48:18;14.00;92.70
25360;DHT22;13311;51.386;0.016;2023-12-29T16:53:19;14.10;92.90
25360;DHT22;13311;51.386;0.016;2023-12-29T16:58:24;14.10;93.70
25360;DHT22;13311;51.386;0.016;2023-12-29T17:03:24;13.90;93.10
25360;DHT22;13311;51.386;0.016;2023-12-29T17:08:25;14.00;94.00
25360;DHT22;13311;51.386;0.016;2023-12-29T17:13:26;13.90;91.90
25360;DHT22;13311;51.386;0.016;2023-12-29T17:18:27;13.70;93.00
25360;DHT22;13311;51.386;0.016;2023-12-29T17:23:30;13.80;94.00
25360;DHT22;13311;51.386;0.016;2023-12-29T17:28:32;13.70;93.60
25360;DHT22;13311;51.386;0.016;2023-12-29T17:33:34;13.70;94.30
25360;DHT22;13311;51.386;0.016;2023-12-29T17:38:35;13.60;92.90
25360;DHT22;13311;51.386;0.016;2023-12-29T17:43:36;13.70;93.90
25360;DHT22;13311;51.386;0.016;2023-12-29T17:48:37;13.70;92.70
25360;DHT22;13311;51.386;0.016;2023-12-29T17:53:38;13.30;92.10
25360;DHT22;13311;51.386;0.016;2023-12-29T17:58:39;13.30;92.80
25360;DHT22;13311;51.386;0.016;2023-12-29T18:03:47;13.40;94.90
25360;DHT22;13311;51.386;0.016;2023-12-29T18:08:49;13.40;93.90
25360;DHT22;13311;51.386;0.016;2023-12-29T18:13:51;13.20;91.80
25360;DHT22;13311;51.386;0.016;2023-12-29T18:18:51;13.10;93.80
25360;DHT22;13311;51.386;0.016;2023-12-29T18:23:55;13.30;94.90
25360;DHT22;13311;51.386;0.016;2023-12-29T18:28:56;13.30;93.40
25360;DHT22;13311;51.386;0.016;2023-12-29T18:33:57;13.30;93.70
25360;DHT22;13311;51.386;0.016;2023-12-29T18:38:59;13.30;92.10
25360;DHT22;13311;51.386;0.016;2023-12-29T18:44:00;13.20;94.10
25360;DHT22;13311;51.386;0.016;2023-12-29T18:49:00;13.00;93.20
25360;DHT22;13311;51.386;0.016;2023-12-29T18:54:01;13.00;93.60
25360;DHT22;13311;51.386;0.016;2023-12-29T18:59:02;12.90;92.80
25360;DHT22;13311;51.386;0.016;2023-12-29T19:04:04;12.80;92.40
25360;DHT22;13311;51.386;0.016;2023-12-29T19:09:05;12.90;92.60
25360;DHT22;13311;51.386;0.016;2023-12-29T19:14:07;12.90;93.30
25360;DHT22;13311;51.386;0.016;2023-12-29T19:19:08;12.90;94.50
25360;DHT22;13311;51.386;0.016;2023-12-29T19:24:10;12.80;93.30
25360;DHT22;13311;51.386;0.016;2023-12-29T19:29:10;12.60;92.90
25360;DHT22;13311;51.386;0.016;2023-12-29T19:34:12;12.50;92.00
25360;DHT22;13311;51.386;0.016;2023-12-29T19:39:13;12.40;92.80
25360;DHT22;13311;51.386;0.016;2023-12-29T19:44:14;12.30;92.60
25360;DHT22;13311;51.386;0.016;2023-12-29T19:49:15;12.30;93.50
25360;DHT22;13311;51.386;0.016;2023-12-29T19:54:16;12.40;93.50
25360;DHT22;13311;51.386;0.016;2023-12-29T19:59:17;12.40;93.20
25360;DHT22;13311;51.386;0.016;2023-12-29T20:04:18;12.40;92.70
25360;DHT22;13311;51.386;0.016;2023-12-29T20:09:18;12.40;93.60
25360;DHT22;13311;51.386;0.016;2023-12-29T20:14:19;12.30;94.10
25360;DHT22;13311;51.386;0.016;2023-12-29T20:19:20;12.30;93.70
25360;DHT22;13311;51.386;0.016;2023-12-29T20:24:21;12.30;93.40
25360;DHT22;13311;51.386;0.016;2023-12-29T20:29:22;12.30;93.60
25360;DHT22;13311;51.386;0.016;2023-12-29T20:34:24;12.10;93.30
25360;DHT22;13311;51.386;0.016;2023-12-29T20:39:25;12.10;94.40
25360;DHT22;13311;51.386;0.016;2023-12-29T20:44:26;12.10;94.10
25360;DHT22;13311;51.386;0.016;2023-12-29T20:49:27;12.10;94.00
25360;DHT22;13311;51.386;0.016;2023-12-29T20:54:27;12.10;94.30
25360;DHT22;13311;51.386;0.016;2023-12-29T20:59:32;12.00;93.90
25360;DHT22;13311;51.386;0.016;2023-12-29T21:04:36;12.00;94.00
25360;DHT22;13311;51.386;0.016;2023-12-29T21:09:36;12.00;94.10
25360;DHT22;13311;51.386;0.016;2023-12-29T21:14:37;12.00;94.90
25360;DHT22;13311;51.386;0.016;2023-12-29T21:19:38;12.10;94.00
25360;DHT22;13311;51.386;0.016;2023-12-29T21:24:39;11.80;94.40
25360;DHT22;13311;51.386;0.016;2023-12-29T21:29:40;11.80;94.10
25360;DHT22;13311;51.386;0.016;2023-12-29T21:34:41;11.70;94.70
25360;DHT22;13311;51.386;0.016;2023-12-29T21:39:42;11.80;94.30
25360;DHT22;13311;51.386;0.016;2023-12-29T21:44:44;11.50;94.50
25360;DHT22;13311;51.386;0.016;2023-12-29T21:49:45;11.60;95.20
25360;DHT22;13311;51.386;0.016;2023-12-29T21:54:46;11.60;95.30
25360;DHT22;13311;51.386;0.016;2023-12-29T21:59:47;11.60;95.10
25360;DHT22;13311;51.386;0.016;2023-12-29T22:04:48;11.70;94.80
25360;DHT22;13311;51.386;0.016;2023-12-29T22:09:51;11.60;95.00
25360;DHT22;13311;51.386;0.016;2023-12-29T22:14:52;11.60;95.00
25360;DHT22;13311;51.386;0.016;2023-12-29T22:19:53;11.50;94.50
25360;DHT22;13311;51.386;0.016;2023-12-29T22:24:54;11.50;94.80
25360;DHT22;13311;51.386;0.016;2023-12-29T22:29:55;11.40;95.10
25360;DHT22;13311;51.386;0.016;2023-12-29T22:34:56;11.50;94.90
25360;DHT22;13311;51.386;0.016;2023-12-29T22:39:57;11.60;95.50
25360;DHT22;13311;51.386;0.016;2023-12-29T22:44:58;11.60;94.70
25360;DHT22;13311;51.386;0.016;2023-12-29T22:49:59;11.50;94.70
25360;DHT22;13311;51.386;0.016;2023-12-29T22:55:00;11.60;94.70
25360;DHT22;13311;51.386;0.016;2023-12-29T23:00:00;11.50;94.40
25360;DHT22;13311;51.386;0.016;2023-12-29T23:05:02;11.70;95.10
25360;DHT22;13311;51.386;0.016;2023-12-29T23:10:04;11.50;94.20
25360;DHT22;13311;51.386;0.016;2023-12-29T23:15:05;11.50;94.60
25360;DHT22;13311;51.386;0.016;2023-12-29T23:20:08;11.40;94.60
25360;DHT22;13311;51.386;0.016;2023-12-29T23:25:09;11.40;94.60
25360;DHT22;13311;51.386;0.016;2023-12-29T23:30:11;11.30;94.70
25360;DHT22;13311;51.386;0.016;2023-12-29T23:35:16;11.40;94.90
25360;DHT22;13311;51.386;0.016;2023-12-29T23:40:17;11.20;94.80
25360;DHT22;13311;51.386;0.016;2023-12-29T23:45:18;11.20;94.90
25360;DHT22;13311;51.386;0.016;2023-12-29T23:50:18;11.10;94.70
25360;DHT22;13311;51.386;0.016;2023-12-29T23:55:19;11.10;94.90
